Time;durP1;ratioP1;P1;durP2;ratioP2;P2;SDS_P1;SDS_P2;PMS_P1;PMS_P2;Temp;Humidity;BMP_temperature;BMP_pressure;BME280_temperature;BME280_humidity;BME280_pressure;Samples;Min_cycle;Max_cycle;Signal;HPM_P1;HPM_P2
2021/06/11 00:00:31;;;;;;;8.10;5.67;;;;;;;11.91;80.76;98204.91;1728481;83;21209;-76
2021/06/11 00:02:59;;;;;;;8.85;5.28;;;;;;;11.89;79.09;98205.73;1728434;83;21064;-76
2021/06/11 00:05:25;;;;;;;7.42;5.37;;;;;;;11.78;80.81;98204.95;1728945;83;20947;-77
2021/06/11 00:07:51;;;;;;;9.85;5.47;;;;;;;11.72;80.57;98197.95;1728678;83;21532;-77
2021/06/11 00:10:17;;;;;;;8.98;5.20;;;;;;;11.69;79.24;98210.72;1728552;83;20952;-76
2021/06/11 00:12:43;;;;;;;9.15;5.15;;;;;;;11.64;78.85;98209.96;1701809;83;21076;-76
2021/06/11 00:15:11;;;;;;;9.90;5.85;;;;;;;11.66;78.81;98217.27;1746459;81;20854;-76
2021/06/11 00:17:37;;;;;;;8.90;5.50;;;;;;;11.59;79.39;98207.53;1759588;81;20997;-76
2021/06/11 00:20:06;;;;;;;8.90;6.58;;;;;;;11.48;80.90;98210.05;1759327;81;20990;-76
2021/06/11 00:22:32;;;;;;;7.25;5.53;;;;;;;11.45;81.88;98212.50;1729931;81;21025;-76
2021/06/11 00:24:58;;;;;;;8.90;5.47;;;;;;;11.46;79.94;98212.79;1759128;81;21441;-76
2021/06/11 00:27:24;;;;;;;8.83;5.78;;;;;;;11.41;80.36;98209.55;1759470;81;21527;-76
2021/06/11 00:29:51;;;;;;;7.08;5.30;;;;;;;11.39;81.25;98210.92;1759156;81;21001;-77
2021/06/11 00:32:17;;;;;;;7.30;5.40;;;;;;;11.37;81.77;98205.78;1759058;80;21060;-77
2021/06/11 00:34:43;;;;;;;10.38;6.35;;;;;;;11.39;81.13;98207.67;1759314;81;20890;-77
2021/06/11 00:37:09;;;;;;;5.83;4.83;;;;;;;11.38;81.36;98216.90;1759560;81;20987;-77
2021/06/11 00:39:34;;;;;;;9.63;5.20;;;;;;;11.37;80.95;98218.00;1759152;81;21490;-77
2021/06/11 00:42:01;;;;;;;10.63;5.15;;;;;;;11.38;81.18;98218.80;1730014;81;21076;-77
2021/06/11 00:44:28;;;;;;;6.10;4.47;;;;;;;11.38;81.18;98218.80;1758989;80;20962;-77
2021/06/11 00:46:54;;;;;;;8.80;5.55;;;;;;;11.41;79.93;98216.87;1759519;80;21434;-77
2021/06/11 00:49:20;;;;;;;8.28;5.20;;;;;;;11.41;79.93;98216.87;1759129;81;22005;-77
2021/06/11 00:51:47;;;;;;;7.33;4.85;;;;;;;11.30;81.20;98203.38;1758963;81;21080;-77
2021/06/11 00:54:13;;;;;;;5.78;5.17;;;;;;;11.38;80.61;98210.67;1759533;81;20977;-77
2021/06/11 00:56:39;;;;;;;6.35;4.95;;;;;;;11.34;80.54;98213.11;1759254;81;21474;-77
2021/06/11 00:59:05;;;;;;;7.65;6.20;;;;;;;11.31;80.66;98217.75;1759176;81;20919;-77
2021/06/11 01:01:31;;;;;;;8.90;5.65;;;;;;;11.29;80.29;98207.73;1759060;81;21267;-77
2021/06/11 01:03:57;;;;;;;9.28;6.10;;;;;;;11.29;80.45;98209.09;1759094;80;20878;-76
2021/06/11 01:06:25;;;;;;;6.67;5.40;;;;;;;11.29;79.81;98204.47;1759163;81;20989;-76
2021/06/11 01:08:51;;;;;;;7.05;5.12;;;;;;;11.24;80.43;98209.91;1728638;81;20997;-76
2021/06/11 01:11:18;;;;;;;9.08;6.55;;;;;;;11.21;80.34;98202.34;1759602;81;20942;-76
2021/06/11 01:13:44;;;;;;;7.62;4.92;;;;;;;11.17;80.83;98199.91;1729746;81;21356;-76
2021/06/11 01:16:10;;;;;;;6.90;4.67;;;;;;;11.06;81.29;98197.53;1731790;80;21359;-76
2021/06/11 01:18:36;;;;;;;9.20;4.92;;;;;;;11.07;80.86;98205.92;1728513;83;21054;-76
2021/06/11 01:21:02;;;;;;;9.10;5.28;;;;;;;11.00;80.95;98194.02;1728869;83;20972;-76
2021/06/11 01:24:02;;;;;;;9.43;5.03;;;;;;;11.04;82.33;98206.49;1728494;83;21054;-76
2021/06/11 01:26:37;;;;;;;6.95;4.75;;;;;;;11.03;82.51;98208.94;1728498;83;21539;-77
2021/06/11 01:29:09;;;;;;;8.25;5.28;;;;;;;11.01;82.26;98207.84;1728487;82;20972;-77
2021/06/11 01:31:44;;;;;;;7.50;5.55;;;;;;;11.01;81.73;98205.13;1728253;83;20988;-77
2021/06/11 01:34:29;;;;;;;12.70;5.22;;;;;;;10.98;82.04;98202.98;1728658;83;21402;-76
2021/06/11 01:37:18;;;;;;;7.72;4.45;;;;;;;10.97;80.90;98200.81;1695590;83;20929;-77
2021/06/11 01:39:47;;;;;;;7.10;5.35;;;;;;;10.83;81.10;98189.48;1721807;83;21324;-76
2021/06/11 01:42:13;;;;;;;9.38;5.85;;;;;;;10.83;81.10;98189.48;1728524;83;21039;-77
2021/06/11 01:44:39;;;;;;;7.37;5.58;;;;;;;10.79;80.26;98188.42;1728390;82;21027;-77
2021/06/11 01:47:05;;;;;;;8.10;5.53;;;;;;;10.65;81.80;98185.48;1702012;83;20955;-77
2021/06/11 01:49:31;;;;;;;8.35;5.90;;;;;;;10.60;81.82;98194.45;1728425;83;21000;-77
2021/06/11 01:51:59;;;;;;;6.42;5.25;;;;;;;10.56;81.74;98189.30;1728474;83;21890;-77
2021/06/11 01:54:25;;;;;;;6.72;5.42;;;;;;;10.54;82.17;98186.61;1728784;83;20968;-77
2021/06/11 01:56:51;;;;;;;8.95;5.65;;;;;;;10.53;82.89;98181.73;1701742;83;21479;-77
2021/06/11 01:59:17;;;;;;;8.55;5.35;;;;;;;10.55;81.57;98188.22;1678490;83;21023;-77
2021/06/11 02:01:43;;;;;;;10.70;7.28;;;;;;;10.50;82.07;98193.09;1728712;82;20935;-77
2021/06/11 02:04:09;;;;;;;7.12;5.42;;;;;;;10.50;82.97;98190.39;1728694;83;20978;-77
2021/06/11 02:06:35;;;;;;;8.35;5.08;;;;;;;10.56;82.96;98188.48;1701841;83;20904;-77
2021/06/11 02:09:02;;;;;;;8.58;5.35;;;;;;;10.58;82.92;98190.38;1702056;83;21420;-77
2021/06/11 02:11:28;;;;;;;7.40;4.90;;;;;;;10.52;82.03;98183.37;1728592;83;21074;-77
2021/06/11 02:13:54;;;;;;;9.03;5.20;;;;;;;10.52;82.03;98183.37;1728660;83;20919;-77
2021/06/11 02:16:22;;;;;;;7.25;4.50;;;;;;;10.54;81.39;98194.19;1737496;81;20998;-77
2021/06/11 02:18:48;;;;;;;6.80;4.90;;;;;;;10.51;80.89;98198.81;1739373;82;21102;-77
2021/06/11 02:21:14;;;;;;;6.65;5.10;;;;;;;10.41;80.78;98196.91;1739402;82;21496;-77
2021/06/11 02:23:40;;;;;;;9.10;4.67;;;;;;;10.40;80.77;98201.25;1739456;82;20979;-77
2021/06/11 02:26:10;;;;;;;7.90;4.90;;;;;;;10.31;81.61;98194.23;1739164;82;20944;-77
2021/06/11 02:28:36;;;;;;;7.58;4.72;;;;;;;10.26;82.04;98190.73;1739434;82;21873;-77
2021/06/11 02:31:02;;;;;;;7.97;4.83;;;;;;;10.16;82.86;98196.38;1712262;82;20903;-77
2021/06/11 02:33:28;;;;;;;9.18;5.37;;;;;;;10.15;82.25;98200.71;1739564;82;21519;-77
2021/06/11 02:35:55;;;;;;;7.42;5.40;;;;;;;10.07;82.33;98193.95;1739357;82;20923;-77
2021/06/11 02:38:21;;;;;;;6.08;4.65;;;;;;;10.03;81.86;98196.13;1739481;82;21047;-77
2021/06/11 02:40:49;;;;;;;6.10;4.17;;;;;;;10.05;82.25;98194.77;1739459;82;22038;-77
2021/06/11 02:43:16;;;;;;;12.10;5.87;;;;;;;10.03;82.80;98196.13;1739409;82;20967;-77
2021/06/11 02:45:58;;;;;;;7.33;5.12;;;;;;;10.05;83.38;98200.18;1739361;82;21448;-77
2021/06/11 02:48:33;;;;;;;8.10;4.65;;;;;;;10.10;80.89;98197.48;1738538;82;20951;-78
2021/06/11 02:51:04;;;;;;;7.42;5.00;;;;;;;10.13;81.12;98201.53;1739390;82;20983;-76
2021/06/11 02:53:30;;;;;;;7.35;5.12;;;;;;;10.13;81.01;98201.53;1739382;82;21996;-77
2021/06/11 02:56:03;;;;;;;7.87;5.00;;;;;;;10.22;81.76;98203.16;1739276;82;20916;-77
2021/06/11 02:58:43;;;;;;;7.00;5.45;;;;;;;10.22;81.72;98196.38;1739899;82;21046;-77
2021/06/11 03:01:10;;;;;;;10.65;5.28;;;;;;;10.25;83.21;98197.20;1739323;82;21039;-76
2021/06/11 03:03:36;;;;;;;8.35;5.42;;;;;;;10.32;83.29;98197.75;1739537;82;21357;-76
2021/06/11 03:06:02;;;;;;;6.95;4.90;;;;;;;10.29;82.87;98190.17;1739295;82;22010;-76
2021/06/11 03:08:31;;;;;;;5.83;4.55;;;;;;;10.33;82.95;98198.02;1736551;82;21016;-76
2021/06/11 03:11:03;;;;;;;8.63;5.87;;;;;;;10.31;82.21;98198.29;1739268;82;20940;-77
2021/06/11 03:13:30;;;;;;;8.65;5.15;;;;;;;10.27;82.42;98197.77;1739664;82;21050;-77
2021/06/11 03:15:57;;;;;;;7.62;5.20;;;;;;;10.23;82.15;98200.20;1750046;80;20941;-77
2021/06/11 03:18:38;;;;;;;8.35;5.83;;;;;;;10.26;81.22;98206.98;1729968;81;21870;-77
2021/06/11 03:21:19;;;;;;;6.37;4.40;;;;;;;10.20;82.13;98207.48;1758420;81;20965;-78
2021/06/11 03:23:53;;;;;;;9.48;5.53;;;;;;;10.23;81.51;98209.67;1758015;81;20933;-77
2021/06/11 03:26:24;;;;;;;10.90;5.50;;;;;;;10.30;81.83;98213.47;1759150;81;21048;-76
2021/06/11 03:28:52;;;;;;;5.78;4.65;;;;;;;10.35;81.89;98209.41;1759302;81;21453;-77
2021/06/11 03:31:22;;;;;;;7.30;4.87;;;;;;;10.44;81.06;98206.41;1759349;81;21312;-77
2021/06/11 03:33:52;;;;;;;8.65;4.97;;;;;;;10.50;81.64;98207.19;1728608;81;21096;-76
2021/06/11 03:36:23;;;;;;;8.90;5.35;;;;;;;10.59;81.23;98208.25;1759242;81;21473;-77
2021/06/11 03:38:56;;;;;;;6.03;4.53;;;;;;;10.67;80.85;98215.27;1758823;81;21046;-77
2021/06/11 03:41:22;;;;;;;9.20;5.33;;;;;;;10.65;80.59;98209.87;1759400;81;20953;-75
2021/06/11 03:43:48;;;;;;;8.55;5.05;;;;;;;10.66;80.77;98210.95;1759268;81;21097;-75
2021/06/11 03:46:15;;;;;;;7.85;6.15;;;;;;;10.61;81.09;98204.20;1759254;81;20930;-75
2021/06/11 03:48:45;;;;;;;8.08;5.62;;;;;;;10.61;81.32;98205.55;1759459;81;20985;-75
2021/06/11 03:51:12;;;;;;;10.58;5.33;;;;;;;10.74;80.72;98209.02;1758335;81;21470;-77
2021/06/11 03:53:38;;;;;;;6.30;4.60;;;;;;;10.74;80.72;98209.02;1759282;80;21032;-77
2021/06/11 03:56:06;;;;;;;6.42;5.12;;;;;;;10.82;80.59;98204.94;1759353;80;21253;-77
2021/06/11 03:58:44;;;;;;;9.03;5.62;;;;;;;10.90;80.21;98200.84;1759187;81;21064;-77
2021/06/11 04:01:21;;;;;;;8.28;4.58;;;;;;;11.08;80.96;98200.22;1759368;81;20961;-77
2021/06/11 04:03:47;;;;;;;9.85;5.30;;;;;;;11.19;80.61;98194.19;1759320;81;20986;-76
2021/06/11 04:06:16;;;;;;;7.90;5.25;;;;;;;11.19;80.61;98194.19;1759337;81;21351;-76
2021/06/11 04:08:42;;;;;;;5.75;4.92;;;;;;;11.34;80.03;98200.90;1730214;81;21152;-76
2021/06/11 04:11:25;;;;;;;9.68;5.33;;;;;;;11.40;80.08;98203.86;1759218;81;21088;-77
2021/06/11 04:13:54;;;;;;;8.55;5.47;;;;;;;11.48;80.33;98201.10;1759200;81;20982;-77
2021/06/11 04:16:41;;;;;;;;;;;;;;;11.51;79.95;98203.24;1761720;80;21021;-77
2021/06/11 04:19:21;;;;;;;6.00;5.22;;;;;;;11.53;79.67;98199.70;1759188;80;20175;-77
2021/06/11 04:21:47;;;;;;;11.38;5.75;;;;;;;11.50;79.49;98194.84;1759358;81;21905;-78
2021/06/11 04:24:13;;;;;;;7.22;5.47;;;;;;;11.50;79.51;98205.70;1759094;81;20923;-78
2021/06/11 04:26:40;;;;;;;10.95;6.80;;;;;;;11.54;79.98;98204.87;1759309;80;20973;-78
2021/06/11 04:29:13;;;;;;;7.10;6.00;;;;;;;11.67;79.47;98208.03;1759034;81;20978;-78
2021/06/11 04:31:39;;;;;;;10.45;6.85;;;;;;;11.88;79.07;98209.55;1759298;81;21045;-78
2021/06/11 04:34:05;;;;;;;8.65;5.67;;;;;;;12.07;78.76;98205.59;1729632;81;21168;-77
2021/06/11 04:36:34;;;;;;;8.40;5.58;;;;;;;12.23;78.58;98195.41;1759269;81;20866;-77
2021/06/11 04:39:07;;;;;;;7.83;5.20;;;;;;;12.36;78.58;98208.31;1759401;81;21041;-77
2021/06/11 04:41:33;;;;;;;8.25;5.50;;;;;;;12.57;77.95;98208.38;1759265;81;21418;-76
2021/06/11 04:44:00;;;;;;;12.90;7.03;;;;;;;12.77;77.45;98207.34;1759233;80;21492;-76
2021/06/11 04:46:27;;;;;;;9.08;6.35;;;;;;;12.90;76.89;98205.82;1759143;81;21130;-76
2021/06/11 04:48:53;;;;;;;8.00;6.28;;;;;;;13.12;76.48;98199.85;1759178;81;20938;-76
2021/06/11 04:51:19;;;;;;;8.55;6.03;;;;;;;13.26;75.92;98199.44;1759339;81;20985;-76
2021/06/11 04:53:45;;;;;;;6.92;5.78;;;;;;;13.42;75.67;98201.41;1729314;81;20966;-75
2021/06/11 04:56:14;;;;;;;8.88;5.42;;;;;;;13.59;75.50;98196.78;1759286;81;21500;-75
2021/06/11 04:58:41;;;;;;;7.35;5.22;;;;;;;13.80;75.22;98204.36;1759186;81;21114;-76
2021/06/11 05:01:07;;;;;;;8.05;5.00;;;;;;;14.08;75.14;98193.56;1759209;81;20921;-76
2021/06/11 05:03:34;;;;;;;9.60;6.50;;;;;;;14.37;74.13;98196.08;1759306;81;21358;-76
2021/06/11 05:06:05;;;;;;;8.20;6.03;;;;;;;14.48;74.21;98189.91;1759263;81;21048;-76
2021/06/11 05:08:28;;;;;;;9.50;5.60;;;;;;;14.61;73.67;98185.85;1757916;81;21100;-77
2021/06/11 05:10:55;;;;;;;9.55;6.83;;;;;;;14.59;73.43;98179.86;1759451;81;21084;-76
2021/06/11 05:13:21;;;;;;;6.65;5.30;;;;;;;14.72;73.53;98178.83;1759139;81;20973;-76
2021/06/11 05:15:47;;;;;;;7.47;6.17;;;;;;;14.87;73.19;98188.09;1759358;80;21537;-76
2021/06/11 05:18:13;;;;;;;5.87;4.92;;;;;;;15.03;72.19;98192.65;1729706;81;20957;-76
2021/06/11 05:20:40;;;;;;;5.30;4.80;;;;;;;15.13;71.60;98191.10;1759364;81;21083;-77
2021/06/11 05:23:06;;;;;;;9.13;5.30;;;;;;;15.26;71.65;98188.09;1729084;81;21150;-77
2021/06/11 05:25:33;;;;;;;5.35;4.70;;;;;;;15.39;71.28;98181.80;1759229;80;21024;-76
2021/06/11 05:27:59;;;;;;;6.42;4.30;;;;;;;15.56;71.26;98187.98;1759013;80;21081;-76
2021/06/11 05:30:27;;;;;;;5.70;5.05;;;;;;;15.80;71.06;98187.15;1759444;81;20902;-77
2021/06/11 05:32:53;;;;;;;5.85;4.90;;;;;;;16.06;70.90;98181.34;1759117;81;21037;-77
2021/06/11 05:35:19;;;;;;;6.83;5.20;;;;;;;16.11;69.74;98183.12;1759572;81;21178;-76
2021/06/11 05:37:45;;;;;;;8.13;5.20;;;;;;;16.34;69.75;98187.46;1759193;80;20874;-76
2021/06/11 05:40:13;;;;;;;7.35;6.45;;;;;;;16.39;68.08;98186.50;1759603;81;20933;-76
2021/06/11 05:42:39;;;;;;;6.92;5.17;;;;;;;16.68;68.91;98190.69;1759222;80;21481;-76
2021/06/11 05:45:07;;;;;;;7.80;5.37;;;;;;;16.80;68.25;98182.70;1759548;81;21112;-76
2021/06/11 05:47:38;;;;;;;8.17;5.60;;;;;;;16.99;67.88;98183.25;1759561;81;21966;-76
2021/06/11 05:50:06;;;;;;;11.97;6.83;;;;;;;17.14;67.38;98185.55;1759485;81;21040;-76
2021/06/11 05:52:32;;;;;;;6.30;5.17;;;;;;;17.36;67.42;98182.47;1759254;81;21053;-76
2021/06/11 05:54:58;;;;;;;7.40;5.78;;;;;;;17.54;66.73;98181.36;1759196;81;20993;-76
2021/06/11 05:57:25;;;;;;;7.53;5.30;;;;;;;17.67;66.33;98180.39;1759317;81;20941;-76
2021/06/11 05:59:54;;;;;;;9.68;5.67;;;;;;;17.85;66.04;98181.79;1759208;81;21145;-76
2021/06/11 06:02:22;;;;;;;6.80;5.47;;;;;;;18.02;66.04;98183.14;1759218;81;20969;-77
2021/06/11 06:04:48;;;;;;;8.13;6.08;;;;;;;18.13;64.80;98183.64;1759214;81;21467;-77
2021/06/11 06:07:14;;;;;;;9.73;6.20;;;;;;;18.25;64.88;98175.54;1759432;80;20942;-77
2021/06/11 06:09:41;;;;;;;7.42;6.00;;;;;;;18.48;64.51;98170.65;1759279;80;20994;-77
2021/06/11 06:12:09;;;;;;;7.15;5.47;;;;;;;18.63;64.36;98176.98;1759596;80;21019;-77
2021/06/11 06:14:35;;;;;;;9.05;7.92;;;;;;;18.75;63.89;98176.31;1759307;80;20957;-77
2021/06/11 06:17:01;;;;;;;8.13;5.00;;;;;;;18.93;63.70;98175.66;1759196;81;21044;-77
2021/06/11 06:19:27;;;;;;;6.78;4.78;;;;;;;19.09;63.22;98169.84;1759279;81;21060;-77
2021/06/11 06:21:53;;;;;;;6.05;4.90;;;;;;;19.26;62.29;98177.18;1759277;80;20946;-77
2021/06/11 06:24:19;;;;;;;7.67;5.10;;;;;;;19.35;61.95;98175.98;1759248;81;21426;-77
2021/06/11 06:26:45;;;;;;;8.40;5.12;;;;;;;19.49;61.62;98174.38;1759361;80;20905;-77
2021/06/11 06:29:11;;;;;;;7.17;4.90;;;;;;;19.60;61.80;98172.05;1759253;81;20886;-77
2021/06/11 06:31:38;;;;;;;7.65;5.30;;;;;;;19.67;61.44;98166.25;1759489;81;20897;-77
2021/06/11 06:34:04;;;;;;;6.10;5.28;;;;;;;19.85;61.17;98164.16;1759401;81;20970;-77
2021/06/11 06:36:30;;;;;;;5.70;4.80;;;;;;;20.13;60.04;98171.26;1759482;80;21734;-77
2021/06/11 06:38:59;;;;;;;6.05;4.97;;;;;;;20.10;59.98;98168.39;1759238;81;21343;-77
2021/06/11 06:41:24;;;;;;;7.27;4.77;;;;;;;20.33;59.03;98162.71;1759407;80;21024;-77
2021/06/11 06:43:50;;;;;;;6.55;5.22;;;;;;;20.33;59.03;98162.71;1759498;80;21638;-77
2021/06/11 06:46:21;;;;;;;8.90;4.90;;;;;;;20.61;58.99;98162.13;1759527;81;21008;-77
2021/06/11 06:48:44;;;;;;;4.83;4.33;;;;;;;20.67;58.41;98160.17;1758767;81;21318;-77
2021/06/11 06:51:10;;;;;;;8.30;4.35;;;;;;;20.78;57.78;98163.30;1729739;81;20854;-77
2021/06/11 06:53:36;;;;;;;5.22;4.40;;;;;;;20.94;57.56;98165.61;1759300;80;21487;-77
2021/06/11 06:56:03;;;;;;;7.50;4.90;;;;;;;21.10;56.62;98160.19;1759515;81;21032;-77
2021/06/11 06:58:29;;;;;;;9.73;4.60;;;;;;;21.12;55.71;98153.20;1759384;81;21406;-77
2021/06/11 07:00:54;;;;;;;5.60;4.72;;;;;;;21.15;55.09;98151.70;1728473;81;21944;-77
2021/06/11 07:03:20;;;;;;;6.67;4.65;;;;;;;21.43;55.71;98155.93;1759207;81;20886;-77
2021/06/11 07:05:46;;;;;;;5.42;4.28;;;;;;;21.60;55.24;98160.38;1759477;81;20968;-77
2021/06/11 07:08:12;;;;;;;8.63;5.00;;;;;;;21.76;54.40;98150.80;1759238;81;20870;-77
2021/06/11 07:10:38;;;;;;;5.45;3.92;;;;;;;22.07;54.52;98157.00;1759646;81;20969;-77
2021/06/11 07:13:04;;;;;;;5.92;4.40;;;;;;;22.38;52.69;98155.70;1759223;80;21809;-77
2021/06/11 07:15:30;;;;;;;6.03;4.45;;;;;;;22.60;53.45;98155.70;1759435;80;20949;-77
2021/06/11 07:17:57;;;;;;;5.78;4.85;;;;;;;22.88;51.92;98157.59;1759195;81;21707;-77
2021/06/11 07:20:24;;;;;;;6.03;4.28;;;;;;;22.95;49.90;98161.34;1759460;81;21009;-77
2021/06/11 07:22:50;;;;;;;4.87;3.92;;;;;;;23.09;50.00;98165.03;1759255;80;21005;-77
2021/06/11 07:25:16;;;;;;;5.95;4.75;;;;;;;23.26;50.41;98159.70;1759781;80;21766;-77
2021/06/11 07:27:42;;;;;;;5.50;4.72;;;;;;;23.39;50.05;98155.64;1729563;81;20961;-77
2021/06/11 07:30:09;;;;;;;8.30;4.47;;;;;;;23.31;49.16;98153.88;1729838;81;20917;-77
2021/06/11 07:32:36;;;;;;;6.30;5.58;;;;;;;23.36;48.93;98147.50;1759503;81;21414;-77
2021/06/11 07:35:02;;;;;;;7.58;5.28;;;;;;;23.38;49.33;98158.77;1759457;81;21072;-77
2021/06/11 07:37:28;;;;;;;12.60;5.25;;;;;;;23.69;48.41;98155.16;1759334;80;21072;-77
2021/06/11 07:39:54;;;;;;;5.42;4.35;;;;;;;24.23;45.55;98157.82;1759283;81;20858;-77
2021/06/11 07:42:20;;;;;;;8.48;4.70;;;;;;;24.67;46.82;98151.33;1759441;81;20969;-77
2021/06/11 07:44:46;;;;;;;7.10;5.10;;;;;;;24.70;44.41;98158.92;1729525;81;20978;-77
2021/06/11 07:47:12;;;;;;;6.12;4.53;;;;;;;25.40;45.79;98158.27;1759279;81;20988;-77
2021/06/11 07:49:38;;;;;;;7.50;4.62;;;;;;;25.95;45.75;98160.81;1759258;81;21033;-77
2021/06/11 07:52:06;;;;;;;5.60;4.83;;;;;;;26.51;44.06;98152.95;1759298;81;20942;-77
2021/06/11 07:54:32;;;;;;;5.00;4.40;;;;;;;26.40;41.75;98153.41;1759272;80;21461;-77
2021/06/11 07:56:58;;;;;;;12.55;5.15;;;;;;;26.34;42.56;98157.70;1759721;81;20945;-77
2021/06/11 07:59:24;;;;;;;8.83;4.78;;;;;;;26.57;39.94;98149.20;1759291;81;20958;-77
2021/06/11 08:01:50;;;;;;;7.58;4.80;;;;;;;27.12;41.23;98152.11;1759316;80;21374;-77
2021/06/11 08:04:16;;;;;;;9.63;4.90;;;;;;;27.01;38.27;98146.44;1759301;81;21500;-77
2021/06/11 08:06:44;;;;;;;8.45;4.10;;;;;;;27.65;39.37;98138.52;1759276;81;21072;-77
2021/06/11 08:09:10;;;;;;;6.28;4.40;;;;;;;28.06;38.12;98139.13;1759538;81;20987;-78
2021/06/11 08:11:37;;;;;;;6.37;3.60;;;;;;;27.36;35.50;98144.53;1760014;81;21049;-78
2021/06/11 08:14:03;;;;;;;4.75;3.35;;;;;;;27.46;34.64;98137.43;1759315;81;21637;-78
2021/06/11 08:16:29;;;;;;;5.65;4.40;;;;;;;28.10;36.63;98138.53;1760947;80;20997;-77
2021/06/11 08:18:55;;;;;;;5.28;3.87;;;;;;;28.81;36.60;98138.51;1767917;81;20969;-78
2021/06/11 08:21:21;;;;;;;4.65;3.55;;;;;;;28.99;34.76;98137.94;1768124;80;20909;-78
2021/06/11 08:23:47;;;;;;;12.23;6.50;;;;;;;29.47;34.94;98137.45;1767793;81;20854;-78
2021/06/11 08:26:13;;;;;;;5.92;5.25;;;;;;;29.97;34.37;98132.53;1767959;81;21122;-78
2021/06/11 08:28:39;;;;;;;5.25;3.80;;;;;;;29.68;30.21;98138.84;1767712;81;20956;-78
2021/06/11 08:31:06;;;;;;;5.40;3.87;;;;;;;28.68;32.61;98142.87;1768124;81;20869;-78
2021/06/11 08:33:32;;;;;;;6.47;3.83;;;;;;;29.60;32.65;98142.05;1767778;80;21005;-78
2021/06/11 08:35:58;;;;;;;6.40;4.05;;;;;;;29.41;31.82;98134.30;1742208;81;21071;-78
2021/06/11 08:38:24;;;;;;;5.47;3.83;;;;;;;29.73;32.18;98134.21;1767789;81;21900;-78
2021/06/11 08:40:50;;;;;;;7.12;4.17;;;;;;;29.13;32.18;98132.33;1767696;81;21011;-78
2021/06/11 08:43:18;;;;;;;5.47;4.00;;;;;;;30.19;31.65;98137.45;1767991;81;20948;-78
2021/06/11 08:45:45;;;;;;;4.62;3.10;;;;;;;30.61;31.71;98138.39;1742420;81;20997;-78
2021/06/11 08:48:11;;;;;;;4.28;3.10;;;;;;;30.04;30.59;98133.89;1767904;81;21044;-78
2021/06/11 08:50:37;;;;;;;5.03;4.30;;;;;;;29.37;32.09;98130.70;1768113;81;21552;-77
2021/06/11 08:53:05;;;;;;;9.13;4.08;;;;;;;28.59;32.16;98134.30;1741894;81;20938;-77
2021/06/11 08:55:32;;;;;;;4.87;3.65;;;;;;;28.26;32.42;98134.60;1768142;81;21501;-77
2021/06/11 08:57:58;;;;;;;5.33;3.17;;;;;;;29.04;31.71;98123.57;1767821;81;21139;-78
2021/06/11 09:00:24;;;;;;;7.65;3.40;;;;;;;30.05;30.02;98127.70;1768512;81;20972;-78
2021/06/11 09:03:19;;;;;;;3.50;3.10;;;;;;;30.13;28.96;98122.91;1768024;80;21099;-78
2021/06/11 09:05:47;;;;;;;5.17;3.42;;;;;;;32.37;28.29;98124.22;1767893;81;21086;-77
2021/06/11 09:08:20;;;;;;;5.50;2.60;;;;;;;32.37;28.29;98124.22;1767735;81;21343;-78
2021/06/11 09:10:49;;;;;;;6.20;2.80;;;;;;;31.42;27.09;98124.33;1767180;81;21000;-78
2021/06/11 09:13:24;;;;;;;5.90;3.30;;;;;;;30.07;28.17;98130.88;1767767;81;20943;-78
2021/06/11 09:15:50;;;;;;;7.78;3.17;;;;;;;30.07;28.17;98130.88;1765118;81;21425;-76
2021/06/11 09:18:23;;;;;;;6.58;3.45;;;;;;;28.84;29.22;98131.53;1760780;80;20949;-76
2021/06/11 09:20:50;;;;;;;3.95;2.60;;;;;;;28.93;28.80;98129.77;1759472;81;21029;-77
2021/06/11 09:23:17;;;;;;;2.83;2.37;;;;;;;28.72;27.08;98131.14;1759213;81;20978;-77
2021/06/11 09:25:49;;;;;;;5.55;3.05;;;;;;;27.91;27.30;98125.55;1759447;81;21005;-77
2021/06/11 09:28:25;;;;;;;5.50;3.42;;;;;;;29.72;27.11;98130.44;1757499;81;21307;-77
2021/06/11 09:30:55;;;;;;;8.53;3.17;;;;;;;31.08;27.76;98131.23;1759279;81;20937;-77
2021/06/11 09:33:23;;;;;;;5.05;3.08;;;;;;;33.93;23.21;98124.97;1754041;80;21422;-77
2021/06/11 09:36:02;;;;;;;7.60;3.00;;;;;;;33.93;23.21;98124.97;1759422;81;21068;-77
2021/06/11 09:38:30;;;;;;;4.85;3.25;;;;;;;33.68;23.56;98120.45;1757808;81;20946;-77
2021/06/11 09:41:05;;;;;;;6.42;3.47;;;;;;;34.47;22.72;98121.19;1759344;81;21802;-79
2021/06/11 09:43:32;;;;;;;5.17;2.95;;;;;;;35.14;21.55;98114.37;1759272;81;21008;-77
2021/06/11 09:46:09;;;;;;;7.27;3.40;;;;;;;35.03;21.45;98104.15;1759786;80;21021;-77
2021/06/11 09:48:45;;;;;;;4.00;2.90;;;;;;;35.51;21.87;98103.91;1758699;81;20954;-78
2021/06/11 09:51:20;;;;;;;7.62;2.72;;;;;;;35.70;21.30;98093.72;1729833;81;21052;-78
2021/06/11 09:53:46;;;;;;;3.58;2.50;;;;;;;35.24;20.15;98107.04;1757970;81;21122;-77
2021/06/11 09:56:26;;;;;;;9.60;2.67;;;;;;;33.61;20.49;98103.91;1759263;81;20889;-77
2021/06/11 09:58:53;;;;;;;5.53;2.62;;;;;;;34.68;21.22;98105.02;1759327;81;21021;-78
2021/06/11 10:01:19;;;;;;;6.62;2.12;;;;;;;35.88;18.94;98087.59;1759988;81;21049;-78
2021/06/11 10:03:48;;;;;;;2.92;1.98;;;;;;;34.22;19.84;98088.59;1754550;80;20942;-77
2021/06/11 10:06:17;;;;;;;3.83;2.08;;;;;;;33.83;19.51;98085.98;1759345;81;21302;-77
2021/06/11 10:08:46;;;;;;;7.35;2.50;;;;;;;33.86;19.64;98089.35;1759030;81;20918;-77
2021/06/11 10:11:17;;;;;;;6.08;2.45;;;;;;;35.07;19.57;98082.96;1759313;81;21053;-78
2021/06/11 10:13:44;;;;;;;7.05;2.10;;;;;;;35.50;18.71;98081.83;1759109;81;20966;-78
2021/06/11 10:16:13;;;;;;;2.72;2.00;;;;;;;35.36;18.41;98073.12;1759438;81;21036;-78
2021/06/11 10:18:39;;;;;;;15.53;3.92;;;;;;;35.60;18.25;98057.57;1758999;81;21286;-77
2021/06/11 10:21:06;;;;;;;9.23;2.62;;;;;;;36.96;18.68;98057.61;1759499;80;20933;-77
2021/06/11 10:23:33;;;;;;;8.58;2.20;;;;;;;37.14;17.70;98058.39;1759521;80;21045;-77
2021/06/11 10:26:02;;;;;;;3.05;1.90;;;;;;;37.57;17.28;98057.67;1759634;80;20993;-77
2021/06/11 10:28:36;;;;;;;3.42;1.90;;;;;;;37.51;16.92;98062.33;1759278;81;21057;-78
2021/06/11 10:31:12;;;;;;;2.75;2.02;;;;;;;37.23;16.48;98052.82;1730535;81;21934;-78
2021/06/11 10:33:54;;;;;;;5.53;1.75;;;;;;;35.55;16.14;98051.09;1758244;81;21036;-78
2021/06/11 10:36:33;;;;;;;4.12;1.70;;;;;;;34.79;17.19;98053.51;1759313;81;21418;-78
2021/06/11 10:39:03;;;;;;;4.55;1.90;;;;;;;35.14;17.81;98043.98;1729523;81;21032;-77
2021/06/11 10:41:33;;;;;;;2.52;1.77;;;;;;;35.66;17.69;98040.13;1755004;81;21010;-78
2021/06/11 10:43:59;;;;;;;3.58;2.05;;;;;;;35.75;17.78;98034.00;1727040;81;21753;-78
2021/06/11 10:46:30;;;;;;;2.33;1.80;;;;;;;35.10;16.87;98034.83;1729782;81;20917;-78
2021/06/11 10:49:06;;;;;;;43.28;4.95;;;;;;;35.30;17.38;98031.27;1759132;80;21362;-77
2021/06/11 10:51:44;;;;;;;10.00;2.23;;;;;;;36.62;17.12;98032.30;1759834;81;20982;-77
2021/06/11 10:54:25;;;;;;;12.58;3.00;;;;;;;36.91;15.83;98029.31;1759243;81;20989;-78
2021/06/11 10:57:01;;;;;;;152.30;14.10;;;;;;;37.36;16.01;98017.50;1759493;81;21880;-78
2021/06/11 10:59:45;;;;;;;10.65;2.60;;;;;;;38.66;15.97;98016.42;1756372;81;21763;-77
2021/06/11 11:02:11;;;;;;;3.12;1.52;;;;;;;39.38;15.40;98009.88;1758062;81;21438;-78
2021/06/11 11:04:44;;;;;;;24.40;7.58;;;;;;;38.43;14.75;98002.05;1759163;81;21024;-78
2021/06/11 11:07:30;;;;;;;19.42;4.67;;;;;;;39.61;14.63;98002.02;1759625;81;21006;-78
2021/06/11 11:10:08;;;;;;;5.28;1.67;;;;;;;40.20;13.17;97999.00;1759356;81;21884;-78
2021/06/11 11:13:07;;;;;;;2.95;1.70;;;;;;;39.78;13.80;97990.47;1759429;81;20962;-78
2021/06/11 11:15:38;;;;;;;6.70;2.72;;;;;;;39.62;13.24;97999.33;1759660;81;21028;-77
2021/06/11 11:18:06;;;;;;;2.20;1.75;;;;;;;39.06;13.80;97992.90;1759185;80;21378;-78
2021/06/11 11:20:35;;;;;;;2.52;1.30;;;;;;;38.29;14.20;97985.84;1730423;81;21052;-78
2021/06/11 11:23:04;;;;;;;2.62;1.40;;;;;;;37.34;14.21;97993.92;1759046;81;21064;-78
2021/06/11 11:25:32;;;;;;;2.95;1.60;;;;;;;37.18;14.70;97987.05;1759390;81;21442;-77
2021/06/11 11:27:59;;;;;;;1.32;1.10;;;;;;;38.85;13.36;97989.58;1730273;81;21522;-77
2021/06/11 11:30:26;;;;;;;3.62;1.30;;;;;;;38.47;13.46;97975.83;1759589;81;21041;-77
2021/06/11 11:32:56;;;;;;;5.17;1.40;;;;;;;38.76;12.03;97974.00;1759363;81;21002;-78
2021/06/11 11:35:28;;;;;;;3.70;1.40;;;;;;;37.61;14.18;97969.31;1759424;81;21050;-77
2021/06/11 11:37:59;;;;;;;3.98;1.40;;;;;;;35.39;16.08;97970.06;1729488;81;20994;-78
2021/06/11 11:40:26;;;;;;;2.58;1.32;;;;;;;34.52;17.03;97972.19;1758867;81;21005;-76